Time;durP1;ratioP1;P1;durP2;ratioP2;P2;SDS_P1;SDS_P2;PMS_P1;PMS_P2;Temp;Humidity;BMP_temperature;BMP_pressure;BME280_temperature;BME280_humidity;BME280_pressure;Samples;Min_cycle;Max_cycle;Signal;HPM_P1;HPM_P2
2022/07/05 00:02:04;;;;;;;4.38;2.45;;;;;;;14.46;70.58;102042.19;5069696;28;20123;-72
2022/07/05 00:04:30;;;;;;;3.55;2.10;;;;;;;14.42;70.46;102030.56;5070351;28;20036;-72
2022/07/05 00:09:39;;;;;;;2.20;2.00;;;;;;;14.32;70.92;102032.19;5067102;28;20036;-72
2022/07/05 00:12:04;;;;;;;4.15;2.17;;;;;;;14.27;70.90;102032.50;5064354;28;20376;-72
2022/07/05 00:14:30;;;;;;;3.17;2.47;;;;;;;14.25;71.03;102030.84;5064962;28;20048;-71
2022/07/05 00:16:56;;;;;;;4.22;2.30;;;;;;;14.19;71.21;102028.53;5067037;28;20036;-72
2022/07/05 00:19:21;;;;;;;3.20;2.50;;;;;;;14.17;71.37;102027.75;5065614;28;20036;-72
2022/07/05 00:21:47;;;;;;;5.70;2.95;;;;;;;14.11;71.78;102022.72;5065307;28;20563;-72
2022/07/05 00:24:12;;;;;;;3.95;3.03;;;;;;;14.06;72.17;102025.75;5064576;28;20036;-72
2022/07/05 00:26:37;;;;;;;4.50;2.42;;;;;;;13.98;71.96;102012.59;5065719;28;20024;-72
2022/07/05 00:29:03;;;;;;;2.88;2.38;;;;;;;13.96;71.82;102019.16;5066191;28;20040;-71
2022/07/05 00:31:28;;;;;;;3.58;2.45;;;;;;;13.93;71.77;102019.34;5082051;28;20068;-72
2022/07/05 00:33:53;;;;;;;6.15;2.60;;;;;;;13.87;72.07;102017.06;5074885;28;20360;-72
2022/07/05 00:36:19;;;;;;;5.35;2.60;;;;;;;13.83;72.18;102015.50;5066615;28;20120;-72
2022/07/05 00:38:44;;;;;;;5.15;2.38;;;;;;;13.79;72.08;102018.44;5066498;28;20143;-72
2022/07/05 00:41:09;;;;;;;9.13;3.05;;;;;;;13.75;71.94;102019.59;5064708;28;20040;-72
2022/07/05 00:43:35;;;;;;;5.75;3.03;;;;;;;13.70;72.57;102018.16;5080974;28;20036;-72
2022/07/05 00:46:00;;;;;;;4.75;2.80;;;;;;;13.65;72.25;102012.13;5082592;28;20190;-73
2022/07/05 00:48:25;;;;;;;5.45;3.00;;;;;;;13.59;72.58;102023.50;5065802;28;20173;-72
2022/07/05 00:50:52;;;;;;;6.03;3.42;;;;;;;13.48;73.75;102021.47;5064683;28;20493;-72
2022/07/05 00:53:18;;;;;;;4.25;3.20;;;;;;;13.42;73.63;102016.38;5081785;28;20097;-72
2022/07/05 00:55:44;;;;;;;4.07;2.70;;;;;;;13.42;73.08;102017.25;5065958;28;20040;-72
2022/07/05 00:58:10;;;;;;;3.65;2.47;;;;;;;13.44;73.16;102019.91;5064738;28;20032;-72
2022/07/05 01:00:36;;;;;;;4.75;3.40;;;;;;;13.43;73.08;102023.59;5065923;28;20082;-72
2022/07/05 01:03:01;;;;;;;4.20;2.83;;;;;;;13.42;72.79;102024.59;5071109;28;20032;-72
2022/07/05 01:05:28;;;;;;;3.90;2.70;;;;;;;13.38;72.74;102026.66;5065370;28;20084;-73
2022/07/05 01:07:54;;;;;;;5.43;2.85;;;;;;;13.37;72.92;102026.75;5048140;28;20475;-72
2022/07/05 01:10:20;;;;;;;7.05;3.22;;;;;;;13.32;72.86;102021.59;5065877;28;20036;-72
2022/07/05 01:12:45;;;;;;;6.10;3.72;;;;;;;13.26;74.10;102027.47;5064133;28;20476;-72
2022/07/05 01:15:11;;;;;;;6.47;3.45;;;;;;;13.22;74.01;102029.50;5065341;28;20174;-72
2022/07/05 01:17:37;;;;;;;4.50;2.85;;;;;;;13.20;73.72;102023.25;5081412;28;20131;-72
2022/07/05 01:20:04;;;;;;;8.48;3.28;;;;;;;13.16;73.44;102021.69;5065691;28;20033;-72
2022/07/05 01:22:51;;;;;;;3.90;3.15;;;;;;;13.15;72.39;102021.75;5066931;28;20170;-72
2022/07/05 01:25:16;;;;;;;5.95;3.60;;;;;;;13.08;73.52;102020.41;5066328;28;20135;-72
2022/07/05 01:27:42;;;;;;;4.65;3.50;;;;;;;13.06;73.72;102025.13;5064828;28;20058;-73
2022/07/05 01:30:08;;;;;;;7.95;3.33;;;;;;;12.99;73.77;102025.47;5063805;28;20109;-72
2022/07/05 01:32:33;;;;;;;7.82;3.80;;;;;;;13.02;74.49;102019.84;5071808;28;20042;-68
2022/07/05 01:34:59;;;;;;;4.95;3.25;;;;;;;12.99;74.51;102027.34;5067099;28;20119;-72
2022/07/05 01:37:24;;;;;;;8.95;4.00;;;;;;;12.98;74.22;102028.31;5066032;28;20139;-72
2022/07/05 01:39:51;;;;;;;5.95;3.78;;;;;;;12.92;74.18;102023.25;5065920;28;20143;-72
2022/07/05 01:42:17;;;;;;;6.63;4.40;;;;;;;12.85;75.15;102030.94;5062810;28;20432;-71
2022/07/05 01:44:42;;;;;;;5.13;3.92;;;;;;;12.82;75.09;102022.06;5063273;28;20121;-72
2022/07/05 01:47:07;;;;;;;5.47;3.65;;;;;;;12.80;75.21;102032.22;5066009;28;20480;-72
2022/07/05 01:49:43;;;;;;;7.20;3.78;;;;;;;12.78;75.40;102021.41;5065677;28;20123;-72
2022/07/05 01:52:10;;;;;;;4.70;3.70;;;;;;;12.76;75.30;102026.94;5064490;28;20404;-72
2022/07/05 01:54:36;;;;;;;6.40;3.85;;;;;;;12.76;76.00;102020.59;5081248;28;20063;-72
2022/07/05 01:57:04;;;;;;;4.90;3.95;;;;;;;12.73;75.48;102018.97;5065107;28;20429;-72
2022/07/05 01:59:31;;;;;;;7.43;3.80;;;;;;;12.70;75.62;102018.25;5075317;28;20060;-71
2022/07/05 02:01:57;;;;;;;6.75;3.83;;;;;;;12.70;74.99;102018.25;5067306;28;20447;-72
2022/07/05 02:04:23;;;;;;;7.50;4.35;;;;;;;12.64;74.76;102016.81;5073205;28;20521;-72
2022/07/05 02:06:49;;;;;;;6.07;4.10;;;;;;;12.62;75.28;102015.13;5065504;28;20041;-72
2022/07/05 02:09:14;;;;;;;11.50;4.95;;;;;;;12.56;76.42;102010.94;5079348;28;20353;-72
2022/07/05 02:11:39;;;;;;;6.10;4.45;;;;;;;12.54;75.84;102015.59;5046699;28;20498;-72
2022/07/05 02:14:05;;;;;;;6.68;4.32;;;;;;;12.52;75.92;102012.09;5062564;28;20074;-72
2022/07/05 02:16:37;;;;;;;5.18;3.80;;;;;;;12.50;75.32;102011.31;5064462;28;20556;-72
2022/07/05 02:19:02;;;;;;;5.00;4.00;;;;;;;12.48;75.45;102015.97;5065061;28;20028;-72
2022/07/05 02:21:31;;;;;;;8.05;4.28;;;;;;;12.44;75.65;102012.56;5068245;28;20437;-72
2022/07/05 02:23:58;;;;;;;8.02;4.28;;;;;;;12.42;75.46;102011.78;5084808;28;20116;-72
2022/07/05 02:26:26;;;;;;;5.57;4.00;;;;;;;12.37;75.21;102003.00;5083968;28;20067;-71
2022/07/05 02:28:53;;;;;;;5.47;3.80;;;;;;;12.36;75.75;102005.84;5083207;28;20328;-73
2022/07/05 02:31:20;;;;;;;9.73;3.92;;;;;;;12.33;75.54;102006.88;5067672;28;20043;-72
2022/07/05 02:33:47;;;;;;;6.60;4.40;;;;;;;12.29;76.26;102007.16;5077296;28;20492;-72
2022/07/05 02:36:13;;;;;;;6.70;4.32;;;;;;;12.24;76.64;102007.44;5069497;28;20059;-72
2022/07/05 02:38:39;;;;;;;7.68;4.68;;;;;;;12.21;76.17;102021.25;5065599;28;20134;-72
2022/07/05 02:41:08;;;;;;;9.82;5.55;;;;;;;12.20;75.64;102014.06;5067332;28;20093;-72
2022/07/05 02:43:35;;;;;;;7.40;4.90;;;;;;;12.15;76.04;102025.25;5065148;28;20521;-72
2022/07/05 02:46:02;;;;;;;9.68;5.47;;;;;;;12.08;78.49;102029.34;5068038;28;20321;-72
2022/07/05 02:48:28;;;;;;;7.10;4.53;;;;;;;12.06;77.20;102030.38;5066734;28;20070;-72
2022/07/05 02:50:54;;;;;;;5.75;4.22;;;;;;;12.05;76.58;102031.34;5066291;28;20140;-73
2022/07/05 02:53:20;;;;;;;8.07;4.60;;;;;;;12.01;76.58;102036.09;5068612;28;20499;-72
2022/07/05 02:55:46;;;;;;;7.97;5.28;;;;;;;12.02;76.25;102039.72;5049428;28;20035;-71
2022/07/05 02:58:12;;;;;;;9.98;4.75;;;;;;;12.00;76.61;102037.97;5065569;28;20040;-73
2022/07/05 03:00:37;;;;;;;12.10;5.93;;;;;;;12.02;77.16;102032.41;5068029;28;20033;-72
2022/07/05 03:03:03;;;;;;;8.95;5.50;;;;;;;12.00;77.23;102040.69;5077194;28;20370;-72
2022/07/05 03:05:30;;;;;;;6.93;4.82;;;;;;;11.98;76.72;102041.72;5066862;28;20123;-73
2022/07/05 03:08:00;;;;;;;9.00;5.13;;;;;;;11.97;76.33;102039.97;5067479;28;20078;-72
2022/07/05 03:10:28;;;;;;;8.65;5.32;;;;;;;11.92;77.78;102039.38;5066158;28;20045;-73
2022/07/05 03:12:55;;;;;;;7.18;5.22;;;;;;;11.90;76.55;102039.47;5064957;28;20043;-72
2022/07/05 03:15:20;;;;;;;7.03;5.10;;;;;;;11.90;76.87;102044.94;5065810;28;20512;-71
2022/07/05 03:17:46;;;;;;;6.38;4.78;;;;;;;11.88;76.63;102048.72;5066241;28;20492;-72
2022/07/05 03:20:13;;;;;;;7.55;4.90;;;;;;;11.85;77.11;102040.72;5065951;28;20340;-72
2022/07/05 03:22:39;;;;;;;7.65;5.20;;;;;;;11.83;77.02;102045.38;5068034;28;20021;-73
2022/07/05 03:25:05;;;;;;;9.10;5.43;;;;;;;11.77;76.90;102049.31;5066577;28;20348;-72
2022/07/05 03:27:31;;;;;;;8.43;5.55;;;;;;;11.77;77.29;102054.75;5066494;28;20123;-71
2022/07/05 03:29:58;;;;;;;10.43;5.50;;;;;;;11.77;77.30;102051.16;5065222;28;20032;-72
2022/07/05 03:32:23;;;;;;;9.18;5.60;;;;;;;11.77;77.23;102062.06;5071293;28;20192;-73
2022/07/05 03:34:49;;;;;;;10.38;5.72;;;;;;;11.76;77.42;102050.28;5074876;28;20032;-72
2022/07/05 03:37:16;;;;;;;9.35;6.50;;;;;;;11.69;78.14;102052.47;5072018;28;20036;-73
2022/07/05 03:39:42;;;;;;;9.85;6.75;;;;;;;11.69;77.86;102055.19;5086388;28;20100;-72
2022/07/05 03:42:08;;;;;;;7.60;5.57;;;;;;;11.69;77.72;102059.78;5067230;28;20124;-73
2022/07/05 03:44:33;;;;;;;8.57;6.18;;;;;;;11.73;78.21;102062.22;5065216;28;20336;-72
2022/07/05 03:47:02;;;;;;;8.27;5.38;;;;;;;11.74;77.49;102063.97;5066846;28;20033;-72
2022/07/05 03:49:28;;;;;;;8.32;5.70;;;;;;;11.78;77.76;102067.41;5064133;28;20452;-72
2022/07/05 03:51:54;;;;;;;10.77;6.28;;;;;;;11.80;78.43;102067.31;5065937;28;20047;-73
2022/07/05 03:54:19;;;;;;;8.02;6.13;;;;;;;11.83;78.12;102068.06;5065937;28;20110;-73
2022/07/05 03:56:45;;;;;;;9.35;6.40;;;;;;;11.87;77.22;102072.38;5064914;28;20038;-73
2022/07/05 03:59:12;;;;;;;10.00;6.20;;;;;;;11.91;78.25;102057.59;5064642;28;20048;-72
2022/07/05 04:01:38;;;;;;;10.63;6.65;;;;;;;11.96;78.42;102065.50;5065737;28;20079;-73
2022/07/05 04:04:04;;;;;;;10.70;6.18;;;;;;;12.00;78.41;102067.09;5080276;28;20566;-71
2022/07/05 04:06:31;;;;;;;9.10;5.80;;;;;;;12.01;79.22;102066.09;5086460;28;20059;-73
2022/07/05 04:08:58;;;;;;;13.93;7.13;;;;;;;12.07;79.31;102075.78;5086331;28;20081;-73
2022/07/05 04:11:24;;;;;;;10.13;6.63;;;;;;;12.13;79.54;102076.31;5066288;28;20029;-71
2022/07/05 04:13:52;;;;;;;8.60;5.85;;;;;;;12.20;79.16;102076.81;5064918;28;20166;-72
2022/07/05 04:16:17;;;;;;;8.60;6.93;;;;;;;12.24;79.63;102072.94;5067219;28;20111;-72
2022/07/05 04:18:42;;;;;;;8.38;6.90;;;;;;;12.32;79.88;102073.34;5068610;28;20028;-72
2022/07/05 04:21:08;;;;;;;9.43;6.65;;;;;;;12.38;80.16;102074.84;5065365;28;20036;-73
2022/07/05 04:23:34;;;;;;;10.02;6.85;;;;;;;12.46;79.56;102083.44;5065474;28;20428;-72
2022/07/05 04:26:01;;;;;;;10.32;6.70;;;;;;;12.51;80.05;102074.00;5049320;28;20055;-72
2022/07/05 04:28:35;;;;;;;12.00;7.82;;;;;;;12.58;80.58;102076.34;5063008;28;20089;-71
2022/07/05 04:31:02;;;;;;;12.18;7.72;;;;;;;12.61;80.07;102068.84;5069372;28;20039;-72
2022/07/05 04:33:32;;;;;;;9.48;7.35;;;;;;;12.67;80.61;102073.03;5082045;28;20189;-72
2022/07/05 04:35:58;;;;;;;11.43;8.65;;;;;;;12.68;80.54;102069.34;5065028;28;20501;-72
2022/07/05 04:38:24;;;;;;;12.68;7.68;;;;;;;12.71;81.15;102066.44;5065335;28;20036;-72
2022/07/05 04:40:49;;;;;;;13.90;8.07;;;;;;;12.79;80.91;102071.44;5048615;28;20036;-72
2022/07/05 04:43:15;;;;;;;11.23;8.63;;;;;;;12.87;81.01;102074.53;5063029;28;20096;-72
2022/07/05 04:45:40;;;;;;;9.82;7.45;;;;;;;12.94;80.70;102075.91;5077366;28;20042;-72
2022/07/05 04:48:06;;;;;;;10.50;7.68;;;;;;;13.00;80.17;102070.06;5084278;28;20054;-72
2022/07/05 04:50:34;;;;;;;11.35;7.85;;;;;;;13.10;80.29;102071.22;5068321;28;20035;-70
2022/07/05 04:52:59;;;;;;;9.65;7.68;;;;;;;13.20;80.18;102079.75;5065468;28;20508;-72
2022/07/05 04:55:25;;;;;;;12.27;7.80;;;;;;;13.30;79.76;102071.88;5063792;28;20032;-72
2022/07/05 04:57:50;;;;;;;11.30;7.70;;;;;;;13.43;79.30;102068.25;5063099;28;20608;-72
2022/07/05 05:00:16;;;;;;;11.73;8.90;;;;;;;13.48;81.18;102071.56;5064980;28;20423;-72
2022/07/05 05:02:41;;;;;;;13.13;9.73;;;;;;;13.51;81.34;102065.88;5074217;28;20036;-72
2022/07/05 05:05:07;;;;;;;13.27;9.60;;;;;;;13.59;80.24;102064.50;5068342;28;20056;-72
2022/07/05 05:07:34;;;;;;;12.02;9.82;;;;;;;13.69;80.92;102076.59;5066914;28;20036;-72
2022/07/05 05:09:59;;;;;;;13.20;9.02;;;;;;;13.81;80.84;102072.19;5074689;28;20058;-72
2022/07/05 05:12:25;;;;;;;14.88;10.93;;;;;;;13.84;81.43;102072.81;5076732;28;20028;-72
2022/07/05 05:14:51;;;;;;;17.00;11.15;;;;;;;13.88;81.52;102068.03;5063532;28;20514;-72
2022/07/05 05:17:17;;;;;;;15.02;10.40;;;;;;;13.96;80.28;102073.88;5064856;28;20052;-72
2022/07/05 05:19:44;;;;;;;16.50;9.95;;;;;;;14.08;78.86;102075.78;5064820;28;20044;-72
2022/07/05 05:22:10;;;;;;;14.25;10.98;;;;;;;14.22;81.06;102078.47;5066209;28;20352;-72
2022/07/05 05:24:35;;;;;;;15.10;11.43;;;;;;;14.30;80.64;102080.69;5064103;28;20111;-72
2022/07/05 05:27:01;;;;;;;17.40;12.18;;;;;;;14.33;80.56;102090.56;5064995;28;20107;-72
2022/07/05 05:29:27;;;;;;;18.10;12.43;;;;;;;14.39;80.32;102098.34;5065072;28;20031;-69
2022/07/05 05:31:52;;;;;;;19.48;12.55;;;;;;;14.49;80.02;102094.88;5066691;28;20107;-72
2022/07/05 05:34:18;;;;;;;15.82;11.57;;;;;;;14.66;78.63;102092.84;5075085;28;20207;-72
2022/07/05 05:36:43;;;;;;;17.85;13.07;;;;;;;14.78;79.69;102103.84;5064811;28;20045;-72
2022/07/05 05:39:09;;;;;;;16.83;12.63;;;;;;;14.91;79.06;102102.97;5065832;28;20040;-72
2022/07/05 05:41:35;;;;;;;16.38;13.05;;;;;;;15.03;79.03;102113.06;5064870;28;20064;-72
2022/07/05 05:44:00;;;;;;;14.77;11.48;;;;;;;15.15;78.27;102106.69;5063865;28;20032;-72
2022/07/05 05:46:26;;;;;;;16.55;10.25;;;;;;;15.25;77.18;102117.91;5081471;28;20137;-71
2022/07/05 05:48:51;;;;;;;15.70;10.82;;;;;;;15.38;78.01;102109.63;5062983;28;20446;-72
2022/07/05 05:51:16;;;;;;;20.63;11.38;;;;;;;15.49;77.47;102107.88;5081548;28;20349;-69
2022/07/05 05:53:45;;;;;;;18.80;11.00;;;;;;;15.57;77.27;102110.03;5066035;28;20051;-73
2022/07/05 05:56:10;;;;;;;16.17;11.15;;;;;;;15.68;76.51;102115.69;5067144;28;20040;-72
2022/07/05 05:58:35;;;;;;;14.65;10.57;;;;;;;15.76;77.75;102117.81;5067836;28;20497;-69
2022/07/05 06:01:01;;;;;;;15.55;9.82;;;;;;;15.90;75.83;102116.81;5070022;28;20051;-72
2022/07/05 06:03:27;;;;;;;13.25;9.75;;;;;;;16.05;74.79;102121.16;5064602;28;20192;-72
2022/07/05 06:05:52;;;;;;;15.43;10.13;;;;;;;16.20;74.69;102122.75;5069625;28;20593;-72
2022/07/05 06:08:18;;;;;;;14.48;9.77;;;;;;;16.31;74.62;102130.16;5069166;28;20037;-73
2022/07/05 06:10:45;;;;;;;15.93;8.80;;;;;;;16.39;74.01;102122.22;5084764;28;20139;-72
2022/07/05 06:13:12;;;;;;;16.15;9.48;;;;;;;16.50;72.66;102119.50;5068266;28;20078;-72
2022/07/05 06:15:39;;;;;;;17.20;9.77;;;;;;;16.57;72.93;102129.03;5068801;28;20380;-72
2022/07/05 06:18:06;;;;;;;13.45;9.93;;;;;;;16.68;73.26;102125.47;5086782;28;20390;-72
2022/07/05 06:20:32;;;;;;;15.90;9.02;;;;;;;16.81;72.30;102123.53;5067638;28;20102;-72
2022/07/05 06:22:59;;;;;;;17.33;9.35;;;;;;;16.94;72.91;102122.59;5069020;28;20042;-72
2022/07/05 06:25:25;;;;;;;15.00;9.32;;;;;;;17.09;72.18;102121.34;5068435;28;20043;-72
2022/07/05 06:27:56;;;;;;;13.15;9.05;;;;;;;17.22;71.94;102129.50;5067792;28;20428;-72
2022/07/05 06:30:23;;;;;;;13.95;9.05;;;;;;;17.36;71.25;102126.53;5068727;28;20048;-71
2022/07/05 06:32:49;;;;;;;13.27;8.88;;;;;;;17.52;69.33;102134.41;5077967;28;20059;-72
2022/07/05 06:35:15;;;;;;;13.68;9.30;;;;;;;17.68;70.91;102139.56;5070467;28;20016;-72
2022/07/05 06:37:47;;;;;;;13.40;8.38;;;;;;;17.75;70.33;102140.81;5068943;28;20070;-72
2022/07/05 06:40:18;;;;;;;15.05;9.73;;;;;;;17.87;69.56;102149.97;5069142;28;20048;-72
2022/07/05 06:42:45;;;;;;;15.80;9.27;;;;;;;17.95;68.15;102144.66;5067401;28;20032;-72
2022/07/05 06:45:10;;;;;;;13.30;9.05;;;;;;;18.13;68.39;102137.63;5067951;28;20067;-73
2022/07/05 06:47:36;;;;;;;11.55;8.52;;;;;;;18.30;67.68;102144.47;5068691;28;20522;-73
2022/07/05 06:50:03;;;;;;;14.48;9.13;;;;;;;18.38;66.66;102146.59;5066635;28;20463;-72
2022/07/05 06:52:31;;;;;;;11.93;8.98;;;;;;;18.51;64.58;102139.00;5083802;28;20517;-72
2022/07/05 06:54:58;;;;;;;12.80;9.27;;;;;;;18.62;65.96;102130.72;5088919;28;20112;-72
2022/07/05 06:57:23;;;;;;;15.52;8.85;;;;;;;18.59;65.15;102134.59;5080117;28;20123;-72
2022/07/05 06:59:50;;;;;;;11.30;8.48;;;;;;;18.50;64.90;102131.75;5085657;28;20558;-72
2022/07/05 07:02:16;;;;;;;12.75;8.35;;;;;;;18.38;66.13;102144.72;5089690;28;20764;-72
2022/07/05 07:04:41;;;;;;;13.23;8.95;;;;;;;18.35;66.38;102142.22;5080587;28;20543;-70
2022/07/05 07:09:17;;;;;;;12.10;9.23;;;;;;;18.28;67.39;102138.25;5049763;28;20098;-72
2022/07/05 07:09:55;;;;;;;11.82;9.07;;;;;;;18.38;66.86;102138.34;5067903;28;20049;-72
2022/07/05 07:12:20;;;;;;;10.70;8.07;;;;;;;18.71;67.54;102138.22;5067173;28;20025;-73
2022/07/05 07:14:46;;;;;;;11.10;8.02;;;;;;;18.92;65.83;102142.88;5067479;28;20455;-72
2022/07/05 07:17:11;;;;;;;11.80;7.75;;;;;;;19.18;65.33;102141.47;5068403;28;20422;-71
2022/07/05 07:19:36;;;;;;;13.77;7.35;;;;;;;19.48;66.93;102148.03;5067339;28;20059;-72
2022/07/05 07:22:02;;;;;;;13.30;6.88;;;;;;;19.69;63.66;102145.25;5084224;28;20044;-71
2022/07/05 07:24:27;;;;;;;8.50;6.13;;;;;;;19.81;65.53;102149.66;5075172;28;20032;-71
2022/07/05 07:27:06;;;;;;;8.60;6.40;;;;;;;19.98;63.44;102146.25;5066938;28;20115;-71
2022/07/05 07:29:32;;;;;;;13.68;6.78;;;;;;;20.18;63.93;102143.53;5067703;28;20040;-72
2022/07/05 07:31:59;;;;;;;13.70;8.23;;;;;;;20.18;63.37;102155.44;5068193;28;20041;-72
2022/07/05 07:34:25;;;;;;;8.43;6.05;;;;;;;20.28;62.68;102153.56;5077015;28;20040;-71
2022/07/05 07:36:51;;;;;;;11.00;7.60;;;;;;;20.39;64.17;102155.34;5067793;28;20147;-72
2022/07/05 07:39:16;;;;;;;9.50;6.07;;;;;;;20.44;61.47;102158.56;5067545;28;20121;-73
2022/07/05 07:41:42;;;;;;;9.90;6.80;;;;;;;20.57;62.96;102161.97;5067183;28;20551;-72
2022/07/05 07:44:07;;;;;;;12.65;7.47;;;;;;;20.55;61.41;102161.22;5066263;28;20468;-71
2022/07/05 07:46:32;;;;;;;9.25;6.25;;;;;;;20.67;63.33;102164.72;5068671;28;20625;-72
2022/07/05 07:48:59;;;;;;;10.25;6.85;;;;;;;20.65;62.45;102166.75;5066577;28;20047;-71
2022/07/05 07:51:24;;;;;;;11.32;6.30;;;;;;;20.80;62.37;102162.56;5067689;28;20040;-71
2022/07/05 07:53:49;;;;;;;8.98;6.07;;;;;;;21.02;62.09;102164.13;5067731;28;20318;-72
2022/07/05 07:56:15;;;;;;;13.35;7.78;;;;;;;21.12;60.83;102162.25;5067085;28;20174;-73
2022/07/05 07:58:41;;;;;;;12.90;7.43;;;;;;;21.28;60.14;102160.75;5065508;28;20028;-71
2022/07/05 08:01:10;;;;;;;10.95;6.38;;;;;;;21.44;59.97;102162.91;5065804;28;20127;-72
2022/07/05 08:03:36;;;;;;;11.90;5.88;;;;;;;21.61;60.38;102159.38;5077116;28;20036;-72
2022/07/05 08:06:02;;;;;;;13.00;7.78;;;;;;;21.76;58.69;102162.53;5065667;28;20125;-72
2022/07/05 08:08:27;;;;;;;15.50;8.35;;;;;;;21.80;59.41;102158.41;5065751;28;20036;-72
2022/07/05 08:10:53;;;;;;;15.70;5.85;;;;;;;21.96;60.37;102164.16;5066464;28;20047;-72
2022/07/05 08:13:18;;;;;;;11.50;5.65;;;;;;;21.95;58.33;102167.97;5078760;28;20078;-72
2022/07/05 08:15:45;;;;;;;12.32;4.65;;;;;;;22.18;59.31;102162.91;5069201;28;20052;-71
2022/07/05 08:23:38;;;;;;;12.70;6.78;;;;;;;22.61;57.05;102173.28;5067157;28;20519;-73
2022/07/05 08:26:03;;;;;;;13.18;6.00;;;;;;;22.69;56.28;102168.84;5065980;28;20499;-73
2022/07/05 08:28:28;;;;;;;13.68;6.55;;;;;;;22.75;57.12;102170.97;5068456;28;20143;-72
2022/07/05 08:30:54;;;;;;;14.70;6.43;;;;;;;22.71;56.29;102166.78;5066279;28;20147;-73
2022/07/05 08:33:19;;;;;;;10.77;5.88;;;;;;;22.77;56.43;102174.50;5078630;28;20364;-73
2022/07/05 08:35:44;;;;;;;13.65;6.30;;;;;;;22.90;56.95;102175.00;5066147;28;20040;-73
2022/07/05 08:38:12;;;;;;;12.25;6.70;;;;;;;23.02;56.66;102168.16;5066433;28;20059;-73
2022/07/05 08:40:43;;;;;;;12.18;7.20;;;;;;;22.94;56.78;102161.66;5066755;28;20511;-72
2022/07/05 08:43:10;;;;;;;13.52;6.35;;;;;;;22.95;57.46;102167.06;5063320;28;20204;-72
2022/07/05 08:45:37;;;;;;;12.35;6.78;;;;;;;22.91;56.65;102162.84;5066402;28;20058;-70
2022/07/05 08:48:03;;;;;;;13.02;5.43;;;;;;;22.99;57.16;102159.25;5067433;28;20024;-73
2022/07/05 08:50:30;;;;;;;10.57;6.20;;;;;;;23.06;56.26;102165.94;5066060;28;20425;-72
2022/07/05 08:52:55;;;;;;;12.15;5.70;;;;;;;23.27;56.64;102160.00;5066624;28;20059;-70
2022/07/05 08:55:21;;;;;;;9.88;5.97;;;;;;;23.75;56.00;102164.19;5066928;28;20476;-72
2022/07/05 08:57:47;;;;;;;11.07;6.80;;;;;;;24.12;54.77;102164.72;5065027;28;20025;-72
2022/07/05 09:00:12;;;;;;;10.20;5.70;;;;;;;24.44;54.32;102157.53;5065232;28;20165;-71
2022/07/05 09:02:38;;;;;;;12.85;6.93;;;;;;;24.40;52.13;102159.78;5073379;28;20440;-71
2022/07/05 09:05:04;;;;;;;11.50;7.03;;;;;;;24.48;50.64;102155.28;5070652;28;20056;-68
2022/07/05 09:07:32;;;;;;;13.45;7.05;;;;;;;24.71;51.87;102152.72;5065246;28;20503;-71
2022/07/05 09:10:01;;;;;;;11.95;5.55;;;;;;;25.13;52.37;102163.72;5081499;28;20033;-74
2022/07/05 09:12:26;;;;;;;6.70;4.40;;;;;;;25.26;48.86;102168.75;5064744;28;20044;-71
2022/07/05 09:14:56;;;;;;;8.32;4.95;;;;;;;25.63;49.49;102163.47;5064091;28;20060;-72
2022/07/05 09:17:22;;;;;;;7.47;5.00;;;;;;;25.65;49.32;102163.31;5066285;28;20040;-73
2022/07/05 09:20:12;;;;;;;9.60;6.32;;;;;;;25.51;49.80;102172.38;5064787;28;20040;-71
2022/07/05 09:22:44;;;;;;;8.85;5.70;;;;;;;25.08;50.10;102169.81;5066288;28;20118;-71
2022/07/05 09:25:27;;;;;;;8.52;5.20;;;;;;;25.23;51.13;102167.22;5068769;28;20050;-72
2022/07/05 09:28:03;;;;;;;7.03;5.50;;;;;;;25.44;49.15;102163.88;5064757;28;20044;-72
2022/07/05 09:30:34;;;;;;;9.32;6.15;;;;;;;25.70;48.66;102163.66;5068480;28;20047;-71
2022/07/05 09:33:14;;;;;;;12.52;6.60;;;;;;;25.93;48.15;102163.78;5080780;28;20090;-71
2022/07/05 09:35:51;;;;;;;9.10;5.47;;;;;;;26.23;46.09;102167.63;5069144;28;20048;-71
2022/07/05 09:38:20;;;;;;;9.38;6.75;;;;;;;26.23;44.14;102164.84;5069986;28;20111;-71
2022/07/05 09:41:11;;;;;;;11.13;6.22;;;;;;;26.86;48.48;102154.53;5069274;28;20036;-72
2022/07/05 09:43:37;;;;;;;12.40;5.70;;;;;;;26.85;44.76;102161.16;5068485;28;20033;-71
2022/07/05 09:46:04;;;;;;;7.25;4.93;;;;;;;26.53;44.23;102160.34;5070359;28;20147;-71
2022/07/05 09:48:32;;;;;;;7.30;4.95;;;;;;;26.11;45.32;102156.03;5070133;28;20047;-73
2022/07/05 09:51:13;;;;;;;11.32;4.93;;;;;;;25.43;48.29;102159.34;5069095;28;20467;-72
2022/07/05 09:53:51;;;;;;;7.72;4.10;;;;;;;25.28;47.93;102156.41;5070116;28;20044;-72
2022/07/05 09:56:17;;;;;;;5.88;3.33;;;;;;;25.09;47.96;102170.72;5069448;28;20046;-73
2022/07/05 09:58:43;;;;;;;6.60;3.60;;;;;;;24.75;46.79;102160.53;5067692;28;20047;-71
2022/07/05 10:01:36;;;;;;;7.47;3.80;;;;;;;24.46;49.89;102162.94;5069954;28;20044;-72
2022/07/05 10:04:02;;;;;;;10.90;4.03;;;;;;;24.05;47.45;102158.06;5081645;28;20505;-72
2022/07/05 10:06:31;;;;;;;5.43;3.50;;;;;;;24.07;49.97;102157.91;5069618;28;20127;-71
2022/07/05 10:08:56;;;;;;;7.68;3.88;;;;;;;23.92;48.38;102161.34;5069753;28;20463;-72
2022/07/05 10:11:23;;;;;;;7.88;4.03;;;;;;;23.81;49.66;102163.53;5068450;28;20156;-72
2022/07/05 10:13:51;;;;;;;6.22;4.10;;;;;;;23.77;51.31;102160.19;5065904;28;20109;-71
2022/07/05 10:16:18;;;;;;;6.95;3.95;;;;;;;23.62;50.51;102168.25;5069391;28;20036;-72
2022/07/05 10:18:44;;;;;;;6.93;4.32;;;;;;;23.56;50.73;102163.34;5068588;28;20072;-72
2022/07/05 10:21:14;;;;;;;7.03;3.80;;;;;;;23.48;51.32;102165.22;5068667;28;20035;-71
2022/07/05 10:23:45;;;;;;;7.85;4.07;;;;;;;23.34;52.53;102172.22;5066878;28;20181;-73
2022/07/05 10:26:16;;;;;;;8.48;4.50;;;;;;;23.28;51.32;102165.41;5068926;28;20043;-71
2022/07/05 10:28:46;;;;;;;7.05;4.40;;;;;;;23.21;52.45;102163.44;5067717;28;20512;-69
2022/07/05 10:31:16;;;;;;;10.60;5.32;;;;;;;23.22;50.29;102167.97;5068983;28;20471;-72
2022/07/05 10:33:41;;;;;;;8.27;4.47;;;;;;;23.99;53.19;102164.31;5081238;28;20052;-72
2022/07/05 10:36:13;;;;;;;7.38;5.80;;;;;;;24.34;46.75;102166.00;5067362;28;20608;-72
2022/07/05 10:38:42;;;;;;;9.00;5.32;;;;;;;24.80;46.98;102154.47;5068640;28;20113;-72
2022/07/05 10:41:10;;;;;;;10.48;5.43;;;;;;;24.75;49.53;102165.25;5067991;28;20467;-73
2022/07/05 10:43:36;;;;;;;6.18;3.88;;;;;;;24.59;44.62;102158.63;5067412;28;20068;-71
2022/07/05 10:46:02;;;;;;;9.38;3.40;;;;;;;24.61;45.54;102158.44;5084914;28;20098;-73
2022/07/05 10:48:29;;;;;;;8.60;3.72;;;;;;;24.87;47.71;102161.94;5087464;28;20479;-73
2022/07/05 10:51:13;;;;;;;6.50;3.53;;;;;;;25.43;47.23;102159.34;5068276;28;20059;-73
2022/07/05 10:53:39;;;;;;;5.97;2.85;;;;;;;25.76;44.50;102153.72;5068474;28;20048;-74
2022/07/05 10:56:04;;;;;;;4.85;2.80;;;;;;;25.85;45.35;102158.22;5068820;28;20051;-71
2022/07/05 10:58:32;;;;;;;7.45;3.00;;;;;;;26.29;45.59;102160.47;5068104;28;20045;-72
2022/07/05 11:01:16;;;;;;;7.93;3.13;;;;;;;26.20;43.89;102159.63;5068286;28;20090;-72
2022/07/05 11:03:42;;;;;;;6.00;2.50;;;;;;;25.85;44.48;102149.84;5080550;28;20044;-73
2022/07/05 11:06:08;;;;;;;5.28;2.53;;;;;;;25.38;43.34;102164.59;5067943;28;20363;-72
2022/07/05 11:08:55;;;;;;;5.18;2.03;;;;;;;25.15;46.16;102164.44;5080869;28;20046;-69
2022/07/05 11:11:25;;;;;;;6.38;2.40;;;;;;;24.81;45.72;102167.34;5067289;28;20036;-71
2022/07/05 11:13:53;;;;;;;6.22;2.35;;;;;;;24.60;45.12;102165.91;5066801;28;20402;-72
2022/07/05 11:16:31;;;;;;;3.13;1.83;;;;;;;24.51;46.06;102168.84;5068993;28;20503;-72
2022/07/05 11:19:09;;;;;;;5.15;2.35;;;;;;;24.70;46.60;102165.75;5067321;28;20044;-72
2022/07/05 11:21:40;;;;;;;3.88;1.75;;;;;;;25.34;48.15;102172.41;5068247;28;20071;-73
2022/07/05 11:24:26;;;;;;;4.47;2.35;;;;;;;25.84;46.93;102167.66;5068409;28;20071;-73
2022/07/05 11:26:53;;;;;;;4.45;2.30;;;;;;;26.25;43.68;102159.94;5065557;28;20568;-72
2022/07/05 11:29:44;;;;;;;4.40;2.30;;;;;;;26.52;44.04;102163.31;5067450;28;20241;-69
2022/07/05 11:32:14;;;;;;;5.35;3.08;;;;;;;26.12;41.58;102159.69;5084388;28;20085;-74